createdAt,value
2022-10-22T00:02:21.495Z,71.30
2022-10-22T00:04:49.346Z,71.50
2022-10-22T00:07:20.369Z,71.70
2022-10-22T00:09:47.255Z,71.80
2022-10-22T00:12:15.663Z,71.80
2022-10-22T00:14:43.482Z,71.80
2022-10-22T00:17:11.573Z,71.80
2022-10-22T00:19:39.513Z,71.80
2022-10-22T00:22:06.929Z,71.80
2022-10-22T00:24:35.940Z,71.80
2022-10-22T00:27:03.641Z,71.80
2022-10-22T00:29:31.326Z,71.70
2022-10-22T00:31:58.407Z,71.70
2022-10-22T00:34:25.474Z,71.60
2022-10-22T00:36:52.717Z,71.40
2022-10-22T00:39:23.113Z,71.20
2022-10-22T00:41:52.289Z,71.30
2022-10-22T00:44:56.825Z,71.20
2022-10-22T00:47:25.555Z,71.60
2022-10-22T00:49:53.879Z,71.20
2022-10-22T00:52:21.197Z,71.20
2022-10-22T00:54:48.688Z,71.40
2022-10-22T00:57:17.851Z,71.10
2022-10-22T00:59:44.744Z,71.10
2022-10-22T01:02:11.413Z,71.10
2022-10-22T01:04:38.210Z,71.10
2022-10-22T01:07:05.748Z,71.20
2022-10-22T01:09:54.230Z,71.00
2022-10-22T01:12:35.587Z,71.20
2022-10-22T01:15:23.762Z,71.20
2022-10-22T01:18:14.714Z,71.40
2022-10-22T01:21:05.342Z,71.50
2022-10-22T01:24:07.197Z,71.70
2022-10-22T01:26:49.081Z,71.70
2022-10-22T01:29:22.265Z,71.40
2022-10-22T01:31:56.603Z,71.30
2022-10-22T01:34:24.986Z,71.50
2022-10-22T01:36:53.878Z,71.40
2022-10-22T01:39:21.240Z,71.50
2022-10-22T01:41:47.835Z,71.60
2022-10-22T01:44:28.743Z,71.50
2022-10-22T01:47:04.210Z,71.80
2022-10-22T01:49:47.861Z,71.50
2022-10-22T01:52:41.966Z,71.40
2022-10-22T01:55:35.437Z,71.20
2022-10-22T01:58:40.732Z,71.50
2022-10-22T02:01:17.448Z,72.00
2022-10-22T02:03:55.569Z,71.80
2022-10-22T02:06:25.662Z,72.00
2022-10-22T02:08:54.523Z,71.90
2022-10-22T02:11:21.539Z,71.90
2022-10-22T02:13:58.588Z,71.90
2022-10-22T02:16:31.888Z,72.10
2022-10-22T02:19:03.190Z,72.10
2022-10-22T02:21:30.693Z,72.00
2022-10-22T02:23:57.582Z,72.00
2022-10-22T02:26:58.754Z,72.00
2022-10-22T02:29:34.661Z,72.20
2022-10-22T02:32:03.446Z,71.80
2022-10-22T02:34:32.384Z,71.90
2022-10-22T02:37:01.149Z,72.00
2022-10-22T02:39:29.881Z,72.00
2022-10-22T02:41:58.022Z,72.70
2022-10-22T02:44:25.046Z,71.90
2022-10-22T02:46:52.644Z,72.00
2022-10-22T02:49:19.268Z,71.90
2022-10-22T02:51:46.081Z,71.80
2022-10-22T02:54:12.745Z,72.50
2022-10-22T02:56:39.924Z,71.50
2022-10-22T02:59:06.578Z,71.50
2022-10-22T03:01:33.435Z,71.50
2022-10-22T03:04:00.150Z,71.40
2022-10-22T03:06:27.066Z,71.40
2022-10-22T03:08:53.947Z,71.40
2022-10-22T03:11:20.903Z,71.40
2022-10-22T03:13:47.553Z,71.30
2022-10-22T03:16:14.285Z,71.40
2022-10-22T03:18:40.946Z,71.40
2022-10-22T03:21:24.545Z,71.50
2022-10-22T03:23:52.117Z,71.70
2022-10-22T03:26:19.134Z,71.50
2022-10-22T03:28:47.788Z,71.40
2022-10-22T03:31:14.881Z,71.60
2022-10-22T03:33:41.483Z,71.50
2022-10-22T03:36:09.335Z,71.70
2022-10-22T03:38:38.809Z,71.80
2022-10-22T03:41:06.313Z,71.90
2022-10-22T03:43:35.439Z,71.90
2022-10-22T03:46:02.063Z,72.00
2022-10-22T03:48:28.814Z,72.60
2022-10-22T03:50:55.769Z,72.00
2022-10-22T03:53:22.537Z,72.00
2022-10-22T03:55:49.312Z,72.10
2022-10-22T03:58:16.228Z,72.20
2022-10-22T04:00:43.088Z,72.10
2022-10-22T04:03:09.797Z,72.10
2022-10-22T04:05:36.507Z,71.90
2022-10-22T04:08:03.239Z,71.90
2022-10-22T04:10:30.061Z,71.80
2022-10-22T04:12:57.097Z,71.70
2022-10-22T04:15:26.747Z,71.40
2022-10-22T04:17:53.562Z,71.20
2022-10-22T04:20:20.426Z,71.10
2022-10-22T04:22:47.040Z,71.00
2022-10-22T04:25:13.617Z,70.90
2022-10-22T04:27:40.600Z,70.80
2022-10-22T04:30:08.110Z,71.00
2022-10-22T04:32:34.827Z,71.20
2022-10-22T04:35:01.626Z,71.30
2022-10-22T04:37:28.309Z,71.50
2022-10-22T04:39:57.953Z,71.70
2022-10-22T04:42:25.210Z,71.80
2022-10-22T04:44:51.934Z,71.90
2022-10-22T04:47:19.275Z,72.10
2022-10-22T04:49:45.863Z,72.20
2022-10-22T04:52:12.699Z,72.30
2022-10-22T04:54:39.376Z,72.40
2022-10-22T04:57:06.224Z,72.50
2022-10-22T04:59:32.893Z,72.50
2022-10-22T05:01:59.682Z,72.70
2022-10-22T05:04:26.396Z,72.80
2022-10-22T05:06:53.375Z,72.70
2022-10-22T05:09:20.777Z,72.60
2022-10-22T05:11:49.873Z,72.50
2022-10-22T05:14:18.947Z,72.60
2022-10-22T05:16:48.414Z,72.50
2022-10-22T05:19:24.007Z,72.50
2022-10-22T05:21:52.700Z,72.60
2022-10-22T05:24:19.366Z,72.40
2022-10-22T05:26:48.285Z,72.30
2022-10-22T05:29:15.162Z,72.30
2022-10-22T05:31:41.861Z,72.30
2022-10-22T05:34:08.806Z,72.80
2022-10-22T05:36:35.466Z,72.00
2022-10-22T05:39:02.285Z,71.70
2022-10-22T05:41:29.858Z,71.40
2022-10-22T05:43:58.820Z,71.10
2022-10-22T05:46:28.299Z,71.00
2022-10-22T05:48:57.463Z,70.90
2022-10-22T05:51:25.342Z,70.70
2022-10-22T05:53:57.505Z,70.60
2022-10-22T05:56:25.795Z,70.70
2022-10-22T05:58:52.790Z,70.60
2022-10-22T06:01:39.813Z,70.50
2022-10-22T06:04:10.610Z,71.00
2022-10-22T06:06:49.999Z,70.50
2022-10-22T06:09:28.391Z,70.90
2022-10-22T06:11:56.390Z,70.80
2022-10-22T06:14:23.870Z,70.60
2022-10-22T06:16:51.543Z,70.70
2022-10-22T06:19:20.810Z,70.70
2022-10-22T06:21:48.213Z,70.80
2022-10-22T06:24:15.469Z,70.80
2022-10-22T06:26:42.457Z,70.90
2022-10-22T06:29:09.456Z,70.90
2022-10-22T06:31:39.145Z,70.90
2022-10-22T06:34:08.185Z,71.00
2022-10-22T06:36:35.177Z,71.10
2022-10-22T06:39:02.237Z,71.20
2022-10-22T06:41:29.780Z,71.20
2022-10-22T06:43:57.456Z,71.40
2022-10-22T06:46:25.712Z,71.50
2022-10-22T06:48:55.075Z,71.70
2022-10-22T06:51:22.256Z,71.80
2022-10-22T06:53:49.365Z,71.90
2022-10-22T06:56:19.040Z,72.10
2022-10-22T06:58:52.693Z,72.30
2022-10-22T07:01:22.590Z,72.40
2022-10-22T07:03:51.800Z,72.40
2022-10-22T07:06:19.107Z,72.40
2022-10-22T07:08:46.027Z,72.30
2022-10-22T07:11:15.498Z,72.40
2022-10-22T07:13:42.285Z,72.50
2022-10-22T07:16:10.122Z,72.50
2022-10-22T07:18:39.082Z,72.70
2022-10-22T07:21:07.061Z,72.80
2022-10-22T07:23:34.581Z,72.70
2022-10-22T07:26:06.545Z,72.90
2022-10-22T07:28:38.081Z,73.30
2022-10-22T07:31:04.715Z,73.20
2022-10-22T07:33:31.787Z,73.30
2022-10-22T07:36:04.845Z,73.70
2022-10-22T07:38:31.836Z,74.70
2022-10-22T07:40:59.226Z,75.60
2022-10-22T07:43:26.494Z,77.20
2022-10-22T07:45:55.004Z,77.90
2022-10-22T07:48:22.639Z,78.50
2022-10-22T07:50:50.701Z,79.30
2022-10-22T07:53:17.589Z,79.60
2022-10-22T07:55:44.465Z,79.60
2022-10-22T07:58:11.063Z,79.40
2022-10-22T08:00:38.407Z,79.40
2022-10-22T08:03:05.025Z,79.20
2022-10-22T08:05:31.922Z,79.20
2022-10-22T08:07:58.909Z,79.40
2022-10-22T08:10:26.366Z,79.90
2022-10-22T08:12:52.978Z,79.80
2022-10-22T08:15:19.800Z,79.40
2022-10-22T08:17:46.448Z,79.50
2022-10-22T08:20:13.790Z,79.70
2022-10-22T08:22:40.481Z,80.10
2022-10-22T08:25:07.756Z,80.00
2022-10-22T08:27:34.460Z,79.10
2022-10-22T08:30:01.287Z,78.10
2022-10-22T08:32:28.203Z,77.60
2022-10-22T08:34:54.908Z,77.40
2022-10-22T08:37:21.754Z,77.60
2022-10-22T08:39:48.439Z,79.20
2022-10-22T08:42:33.322Z,83.60
2022-10-22T08:45:25.169Z,87.40
2022-10-22T08:48:10.903Z,90.10
2022-10-22T08:50:45.455Z,90.60
2022-10-22T08:53:38.537Z,88.40
2022-10-22T08:56:05.740Z,80.50
2022-10-22T08:58:40.175Z,84.40
2022-10-22T09:01:14.152Z,77.00
2022-10-22T09:03:58.826Z,70.50
2022-10-22T09:06:29.495Z,63.90
2022-10-22T09:08:58.623Z,68.40
2022-10-22T09:11:25.930Z,65.50
2022-10-22T09:13:54.937Z,62.90
2022-10-22T09:16:24.433Z,59.10
2022-10-22T09:19:16.201Z,57.60
2022-10-22T09:21:54.862Z,54.70
2022-10-22T09:24:44.009Z,55.10
2022-10-22T09:27:17.372Z,54.40
2022-10-22T09:29:45.227Z,56.90
2022-10-22T09:32:12.957Z,55.90
2022-10-22T09:34:39.753Z,53.10
2022-10-22T09:37:08.932Z,52.50
2022-10-22T09:39:41.830Z,52.20
2022-10-22T09:42:09.981Z,52.70
2022-10-22T09:44:37.781Z,53.70
2022-10-22T09:47:32.715Z,52.30
2022-10-22T09:50:20.796Z,51.50
2022-10-22T09:53:21.980Z,51.70
2022-10-22T09:55:57.235Z,49.90
2022-10-22T09:58:24.292Z,49.90
2022-10-22T10:00:57.018Z,50.90
2022-10-22T10:03:27.399Z,51.10
2022-10-22T10:06:01.378Z,50.80
2022-10-22T10:08:32.046Z,50.40
2022-10-22T10:11:01.204Z,51.30
2022-10-22T10:13:51.333Z,51.20
2022-10-22T10:16:31.021Z,51.00
2022-10-22T10:19:38.908Z,50.90
2022-10-22T10:22:45.946Z,51.60
2022-10-22T10:25:46.109Z,52.30
2022-10-22T10:28:50.978Z,52.70
2022-10-22T10:31:31.224Z,52.80
2022-10-22T10:34:10.003Z,53.20
2022-10-22T10:36:58.497Z,53.20
2022-10-22T10:39:54.910Z,53.30
2022-10-22T10:42:41.161Z,53.30
2022-10-22T10:45:14.454Z,53.60
2022-10-22T10:47:55.876Z,53.80
2022-10-22T10:50:56.918Z,53.90
2022-10-22T10:53:38.550Z,54.00
2022-10-22T10:56:38.380Z,54.30
2022-10-22T10:59:17.453Z,54.40
2022-10-22T11:01:55.401Z,54.70
2022-10-22T11:04:39.652Z,55.10
2022-10-22T11:07:30.069Z,54.80
2022-10-22T11:10:06.430Z,55.00
2022-10-22T11:12:44.570Z,55.00
2022-10-22T11:15:29.378Z,54.70
2022-10-22T11:18:03.062Z,55.00
2022-10-22T11:20:45.652Z,55.00
2022-10-22T11:23:30.376Z,54.90
2022-10-22T11:25:58.016Z,55.10
2022-10-22T11:28:31.930Z,54.80
2022-10-22T11:31:03.888Z,54.80
2022-10-22T11:33:43.508Z,54.80
2022-10-22T11:36:12.478Z,54.80
2022-10-22T11:38:39.292Z,55.00
2022-10-22T11:41:15.793Z,54.90
2022-10-22T11:43:56.059Z,54.90
2022-10-22T11:46:22.614Z,55.00
2022-10-22T11:49:06.488Z,55.40
2022-10-22T11:51:36.057Z,55.40
2022-10-22T11:54:42.302Z,55.50
2022-10-22T11:57:14.860Z,55.10
2022-10-22T11:59:47.627Z,55.20
2022-10-22T12:02:30.800Z,55.20
2022-10-22T12:05:22.158Z,55.40
2022-10-22T12:07:57.246Z,55.40
2022-10-22T12:10:33.838Z,55.90
2022-10-22T12:13:31.184Z,55.60
2022-10-22T12:16:01.768Z,55.70
2022-10-22T12:18:39.190Z,57.40
2022-10-22T12:21:06.145Z,57.10
2022-10-22T12:23:35.473Z,56.30
2022-10-22T12:26:04.513Z,55.40
2022-10-22T12:28:39.400Z,54.90
2022-10-22T12:31:06.819Z,53.90
2022-10-22T12:33:33.431Z,53.60
2022-10-22T12:36:04.086Z,52.90
2022-10-22T12:38:30.990Z,52.30
2022-10-22T12:40:57.868Z,52.50
2022-10-22T12:43:28.808Z,52.10
2022-10-22T12:45:57.789Z,51.70
2022-10-22T12:48:29.233Z,52.30
2022-10-22T12:50:59.462Z,52.40
2022-10-22T12:53:31.715Z,52.50
2022-10-22T12:56:07.246Z,52.50
2022-10-22T12:58:51.538Z,52.70
2022-10-22T13:01:18.835Z,52.70
2022-10-22T13:03:51.355Z,53.10
2022-10-22T13:06:22.379Z,52.90
2022-10-22T13:09:14.632Z,53.60
2022-10-22T13:12:01.626Z,52.20
2022-10-22T13:14:31.615Z,53.30
2022-10-22T13:17:38.757Z,53.10
2022-10-22T13:20:20.763Z,52.50
2022-10-22T13:22:56.106Z,53.60
2022-10-22T13:25:40.661Z,53.10
2022-10-22T13:28:07.465Z,51.90
2022-10-22T13:30:36.396Z,53.20
2022-10-22T13:33:19.938Z,52.90
2022-10-22T13:35:46.596Z,52.00
2022-10-22T13:38:18.417Z,52.00
2022-10-22T13:40:45.421Z,51.50
2022-10-22T13:43:12.190Z,51.10
2022-10-22T13:45:39.567Z,50.40
2022-10-22T13:48:09.521Z,49.50
2022-10-22T13:50:36.106Z,49.30
2022-10-22T13:53:02.885Z,49.40
2022-10-22T13:55:30.804Z,49.20
2022-10-22T13:58:10.569Z,49.10
2022-10-22T14:00:38.792Z,48.80
2022-10-22T14:03:06.375Z,49.30
2022-10-22T14:05:33.138Z,49.20
2022-10-22T14:08:00.726Z,49.20
2022-10-22T14:10:28.404Z,49.20
2022-10-22T14:12:55.023Z,49.40
2022-10-22T14:15:24.421Z,49.40
2022-10-22T14:17:58.825Z,49.50
2022-10-22T14:20:28.896Z,49.70
2022-10-22T14:22:56.310Z,50.00
2022-10-22T14:25:25.455Z,50.30
2022-10-22T14:27:52.348Z,50.20
2022-10-22T14:30:27.466Z,50.30
2022-10-22T14:32:54.180Z,49.80
2022-10-22T14:35:22.788Z,49.80
2022-10-22T14:37:49.969Z,49.90
2022-10-22T14:40:19.612Z,49.90
2022-10-22T14:42:48.409Z,49.70
2022-10-22T14:45:19.994Z,49.60
2022-10-22T14:47:46.886Z,49.20
2022-10-22T14:50:14.416Z,49.40
2022-10-22T14:52:43.614Z,49.40
2022-10-22T14:55:11.562Z,49.50
2022-10-22T14:57:39.672Z,49.60
2022-10-22T15:00:11.142Z,49.50
2022-10-22T15:02:37.926Z,49.40
2022-10-22T15:05:05.454Z,49.50
2022-10-22T15:07:32.430Z,49.60
2022-10-22T15:09:59.116Z,49.70
2022-10-22T15:12:25.975Z,49.80
2022-10-22T15:14:52.697Z,49.90
2022-10-22T15:17:19.395Z,49.90
2022-10-22T15:19:46.279Z,50.00
2022-10-22T15:22:13.769Z,50.00
2022-10-22T15:24:44.641Z,50.20
2022-10-22T15:27:13.866Z,50.40
2022-10-22T15:29:41.893Z,50.60
2022-10-22T15:32:10.962Z,50.70
2022-10-22T15:34:39.409Z,50.80
2022-10-22T15:37:08.733Z,50.60
2022-10-22T15:39:35.709Z,50.70
2022-10-22T15:44:58.188Z,51.10
2022-10-22T15:47:29.622Z,51.30
2022-10-22T15:49:56.578Z,51.30
2022-10-22T15:52:23.193Z,51.30
2022-10-22T15:54:50.082Z,51.20
2022-10-22T15:57:16.763Z,51.20
2022-10-22T15:59:43.785Z,51.20
2022-10-22T16:02:11.697Z,51.30
2022-10-22T16:04:39.058Z,51.30
2022-10-22T16:07:05.856Z,51.40
2022-10-22T16:09:32.697Z,51.40
2022-10-22T16:11:59.347Z,51.60
2022-10-22T16:14:26.179Z,51.70
2022-10-22T16:16:55.493Z,51.80
2022-10-22T16:19:23.697Z,51.80
2022-10-22T16:21:52.686Z,51.90
2022-10-22T16:24:19.820Z,51.90
2022-10-22T16:26:47.394Z,52.00
2022-10-22T16:29:14.195Z,52.10
2022-10-22T16:31:43.603Z,52.30
2022-10-22T16:34:10.317Z,52.40
2022-10-22T16:36:38.302Z,52.40
2022-10-22T16:39:06.561Z,52.60
2022-10-22T16:41:35.359Z,52.70
2022-10-22T16:44:05.792Z,52.80
2022-10-22T16:46:33.429Z,53.00
2022-10-22T16:49:00.310Z,53.00
2022-10-22T16:51:28.386Z,53.10
2022-10-22T16:53:56.544Z,53.20
2022-10-22T16:56:24.000Z,53.30
2022-10-22T16:58:53.329Z,53.40
2022-10-22T17:01:22.043Z,53.50
2022-10-22T17:03:49.076Z,53.60
2022-10-22T17:06:15.773Z,53.60
2022-10-22T17:08:42.836Z,53.70
2022-10-22T17:11:17.554Z,53.80
2022-10-22T17:13:46.441Z,54.20
2022-10-22T17:16:15.474Z,54.10
2022-10-22T17:18:43.752Z,54.10
2022-10-22T17:21:11.312Z,54.20
2022-10-22T17:23:38.488Z,54.70
2022-10-22T17:26:13.215Z,54.80
2022-10-22T17:28:40.117Z,54.60
2022-10-22T17:31:10.750Z,54.50
2022-10-22T17:33:37.744Z,54.70
2022-10-22T17:36:11.410Z,54.70
2022-10-22T17:38:38.834Z,55.00
2022-10-22T17:41:07.466Z,54.90
2022-10-22T17:43:38.066Z,55.00
2022-10-22T17:46:07.491Z,55.10
2022-10-22T17:48:34.703Z,55.10
2022-10-22T17:51:05.165Z,55.20
2022-10-22T17:53:31.810Z,55.20
2022-10-22T17:56:00.758Z,55.30
2022-10-22T17:58:30.833Z,55.40
2022-10-22T18:00:58.494Z,55.60
2022-10-22T18:03:27.696Z,55.50
2022-10-22T18:05:55.366Z,55.60
2022-10-22T18:08:25.481Z,56.00
2022-10-22T18:10:52.278Z,55.70
2022-10-22T18:13:18.866Z,55.70
2022-10-22T18:15:45.589Z,55.80
2022-10-22T18:18:12.912Z,55.90
2022-10-22T18:20:39.569Z,55.90
2022-10-22T18:23:06.477Z,56.00
2022-10-22T18:25:33.145Z,56.00
2022-10-22T18:28:00.481Z,56.10
2022-10-22T18:30:27.130Z,56.10
2022-10-22T18:32:54.037Z,56.20
2022-10-22T18:35:20.664Z,56.30
2022-10-22T18:37:47.476Z,56.40
2022-10-22T18:40:14.826Z,56.40
2022-10-22T18:42:41.942Z,56.40
2022-10-22T18:45:10.495Z,56.50
2022-10-22T18:47:42.337Z,56.60
2022-10-22T18:50:09.547Z,56.80
2022-10-22T18:52:36.429Z,56.70
2022-10-22T18:55:03.264Z,56.70
2022-10-22T18:57:30.009Z,56.70
2022-10-22T18:59:59.459Z,56.80
2022-10-22T19:02:26.665Z,56.80
2022-10-22T19:04:53.492Z,56.90
2022-10-22T19:07:20.133Z,56.90
2022-10-22T19:09:46.889Z,56.90
2022-10-22T19:12:15.121Z,57.00
2022-10-22T19:14:42.613Z,57.10
2022-10-22T19:17:09.935Z,57.10
2022-10-22T19:19:36.773Z,57.10
2022-10-22T19:22:04.549Z,57.10
2022-10-22T19:24:31.312Z,57.10
2022-10-22T19:26:57.945Z,57.10
2022-10-22T19:29:25.302Z,57.20
2022-10-22T19:31:52.214Z,57.20
2022-10-22T19:34:19.882Z,57.30
2022-10-22T19:36:46.967Z,57.40
2022-10-22T19:39:16.380Z,57.40
2022-10-22T19:41:43.542Z,57.50
2022-10-22T19:44:10.581Z,57.40
2022-10-22T19:46:38.190Z,57.50
2022-10-22T19:49:05.537Z,57.50
2022-10-22T19:51:36.023Z,57.70
2022-10-22T19:54:05.886Z,57.80
2022-10-22T19:56:33.926Z,57.80
2022-10-22T19:59:00.661Z,57.80
2022-10-22T20:01:27.952Z,57.80
2022-10-22T20:03:54.861Z,57.80
2022-10-22T20:06:22.414Z,57.80
2022-10-22T20:08:51.132Z,57.80
2022-10-22T20:11:24.440Z,57.90
2022-10-22T20:13:52.373Z,58.00
2022-10-22T20:16:24.820Z,57.90
2022-10-22T20:18:52.464Z,58.10
2022-10-22T20:21:20.093Z,58.00
2022-10-22T20:23:48.252Z,58.00
2022-10-22T20:26:14.941Z,58.10
2022-10-22T20:28:48.165Z,58.10
2022-10-22T20:31:17.438Z,58.20
2022-10-22T20:33:44.047Z,58.30
2022-10-22T20:36:16.991Z,58.30
2022-10-22T20:38:43.835Z,58.50
2022-10-22T20:41:13.742Z,58.40
2022-10-22T20:43:42.846Z,58.50
2022-10-22T20:46:29.221Z,58.50
2022-10-22T20:49:04.746Z,58.70
2022-10-22T20:51:32.019Z,58.60
2022-10-22T20:53:58.935Z,58.50
2022-10-22T20:56:26.732Z,58.50
2022-10-22T20:59:04.264Z,58.60
2022-10-22T21:01:49.120Z,58.70
2022-10-22T21:04:16.985Z,59.20
2022-10-22T21:06:43.945Z,58.80
2022-10-22T21:09:13.417Z,58.80
2022-10-22T21:11:41.856Z,59.00
2022-10-22T21:14:10.460Z,59.00
2022-10-22T21:16:41.770Z,59.00
2022-10-22T21:19:08.500Z,59.20
2022-10-22T21:21:35.149Z,59.10
2022-10-22T21:24:01.977Z,59.10
2022-10-22T21:26:28.729Z,59.20
2022-10-22T21:28:55.488Z,59.20
2022-10-22T21:31:24.309Z,59.20
2022-10-22T21:33:51.493Z,59.20
2022-10-22T21:36:22.651Z,59.30
2022-10-22T21:38:53.728Z,59.30
2022-10-22T21:41:23.399Z,59.30
2022-10-22T21:43:50.935Z,59.40
2022-10-22T21:46:23.305Z,59.30
2022-10-22T21:48:58.513Z,59.50
2022-10-22T21:51:26.252Z,59.60
2022-10-22T21:53:52.929Z,59.30
2022-10-22T21:56:22.662Z,59.30
2022-10-22T21:58:49.661Z,59.40
2022-10-22T22:01:16.815Z,59.30
2022-10-22T22:03:49.293Z,59.30
2022-10-22T22:06:21.161Z,59.30
2022-10-22T22:08:49.798Z,59.30
2022-10-22T22:11:19.562Z,59.30
2022-10-22T22:13:48.699Z,59.50
2022-10-22T22:16:21.236Z,59.50
2022-10-22T22:18:50.925Z,59.60
2022-10-22T22:21:20.020Z,59.50
2022-10-22T22:23:48.218Z,59.60
2022-10-22T22:26:17.065Z,59.60
2022-10-22T22:28:43.808Z,59.70
2022-10-22T22:31:16.549Z,59.60
2022-10-22T22:33:43.870Z,59.80
2022-10-22T22:36:11.265Z,59.70
2022-10-22T22:38:38.277Z,59.70
2022-10-22T22:41:06.265Z,59.60
2022-10-22T22:43:33.706Z,59.70
2022-10-22T22:46:04.550Z,59.80
2022-10-22T22:48:32.343Z,59.80
2022-10-22T22:51:02.302Z,59.90
2022-10-22T22:53:29.704Z,60.00
2022-10-22T22:56:13.308Z,60.10
2022-10-22T22:58:40.640Z,60.60
2022-10-22T23:01:09.252Z,60.30
2022-10-22T23:03:36.110Z,60.50
2022-10-22T23:06:02.749Z,60.50
2022-10-22T23:08:29.741Z,60.60
2022-10-22T23:11:05.969Z,60.80
2022-10-22T23:13:33.735Z,61.30
2022-10-22T23:16:04.200Z,61.10
2022-10-22T23:18:30.965Z,61.20
2022-10-22T23:20:57.853Z,61.20
2022-10-22T23:23:24.575Z,61.30
2022-10-22T23:25:54.819Z,61.30
2022-10-22T23:28:23.961Z,61.40
2022-10-22T23:30:50.761Z,61.30
2022-10-22T23:33:19.255Z,61.20
2022-10-22T23:35:46.181Z,61.30
2022-10-22T23:38:13.015Z,61.20
2022-10-22T23:40:39.728Z,61.20
2022-10-22T23:43:06.348Z,61.10
2022-10-22T23:45:36.488Z,61.00
2022-10-22T23:48:03.225Z,61.00
2022-10-22T23:50:29.961Z,60.90
2022-10-22T23:52:56.815Z,60.90
2022-10-22T23:55:23.504Z,60.70
2022-10-22T23:57:50.243Z,60.60
